Time;durP1;ratioP1;P1;durP2;ratioP2;P2;SDS_P1;SDS_P2;PMS_P1;PMS_P2;Temp;Humidity;BMP_temperature;BMP_pressure;BME280_temperature;BME280_humidity;BME280_pressure;Samples;Min_cycle;Max_cycle;Signal;HPM_P1;HPM_P2
2021/10/18 00:00:52;;;;;;;10.75;8.40;;;;;;;11.16;79.93;93969.78;5094248;28;20413;-42
2021/10/18 00:03:19;;;;;;;12.80;8.95;;;;;;;11.25;79.91;93969.31;5092680;28;20028;-42
2021/10/18 00:05:44;;;;;;;18.77;10.45;;;;;;;11.30;79.62;93971.91;5093700;28;20028;-42
2021/10/18 00:08:10;;;;;;;104.88;16.23;;;;;;;11.20;79.58;93961.88;5093891;28;20031;-41
2021/10/18 00:10:35;;;;;;;14.45;7.88;;;;;;;11.26;79.84;93968.75;5094030;28;20043;-41
2021/10/18 00:13:00;;;;;;;13.20;6.38;;;;;;;11.26;79.57;93968.75;5093790;28;20541;-41
2021/10/18 00:15:26;;;;;;;9.25;6.97;;;;;;;11.20;79.54;93967.41;5093730;28;20092;-42
2021/10/18 00:17:52;;;;;;;9.43;6.53;;;;;;;11.22;79.68;93964.84;5093556;28;20024;-42
2021/10/18 00:20:17;;;;;;;8.38;6.53;;;;;;;11.22;79.49;93965.59;5093863;28;20024;-41
2021/10/18 00:22:43;;;;;;;8.82;7.07;;;;;;;11.20;79.86;93967.41;5093840;28;20432;-42
2021/10/18 00:25:09;;;;;;;11.95;7.43;;;;;;;11.19;80.29;93963.19;5093495;28;20036;-42
2021/10/18 00:27:35;;;;;;;9.32;5.72;;;;;;;11.21;80.22;93966.91;5093358;28;20111;-41
2021/10/18 00:30:01;;;;;;;13.32;7.38;;;;;;;11.24;80.20;93954.75;5093667;28;20149;-42
2021/10/18 00:32:26;;;;;;;9.63;6.47;;;;;;;11.21;79.94;93963.38;5093340;28;20032;-42
2021/10/18 00:34:52;;;;;;;12.70;7.60;;;;;;;11.20;79.85;93964.66;5093242;28;20028;-42
2021/10/18 00:37:17;;;;;;;8.98;7.85;;;;;;;11.23;79.89;93966.34;5093518;28;20020;-42
2021/10/18 00:39:42;;;;;;;11.43;8.32;;;;;;;11.17;80.07;93960.22;5093474;28;20024;-42
2021/10/18 00:42:08;;;;;;;14.45;8.82;;;;;;;11.14;80.38;93959.28;5093494;28;20047;-42
2021/10/18 00:44:34;;;;;;;14.15;7.88;;;;;;;11.00;80.80;93946.81;5093130;28;20031;-43
2021/10/18 00:46:59;;;;;;;10.23;7.13;;;;;;;11.16;80.62;93961.50;5091755;28;20023;-43
2021/10/18 00:49:25;;;;;;;13.30;8.85;;;;;;;11.15;80.76;93954.50;5093049;28;20020;-43
2021/10/18 00:51:50;;;;;;;13.23;9.65;;;;;;;10.96;80.68;93934.63;5092906;28;20028;-45
2021/10/18 00:54:16;;;;;;;11.18;7.70;;;;;;;11.10;80.80;93958.13;5092940;28;20028;-42
2021/10/18 00:56:42;;;;;;;13.13;7.32;;;;;;;11.13;80.98;93962.59;5091563;28;20020;-45
2021/10/18 00:59:08;;;;;;;11.32;6.28;;;;;;;11.12;81.01;93958.34;5091837;28;20035;-44
2021/10/18 01:01:34;;;;;;;13.32;8.35;;;;;;;11.07;80.88;93953.66;5091888;28;20016;-44
2021/10/18 01:04:01;;;;;;;16.42;10.52;;;;;;;11.06;80.94;93955.72;5091784;28;20686;-43
2021/10/18 01:06:26;;;;;;;19.98;10.13;;;;;;;11.05;81.25;93956.22;5091839;28;20020;-42
2021/10/18 01:08:52;;;;;;;39.78;24.52;;;;;;;11.06;81.04;93952.22;5091187;28;20027;-42
2021/10/18 01:11:17;;;;;;;17.80;11.15;;;;;;;11.08;80.82;93947.63;5092444;28;20024;-42
2021/10/18 01:40:15;;;;;;;16.83;12.50;;;;;;;11.27;81.02;93947.41;5128342;27;20603;-43
2021/10/18 01:42:41;;;;;;;16.55;11.02;;;;;;;11.24;80.87;93949.22;5128519;27;20041;-43
2021/10/18 01:45:08;;;;;;;12.60;7.60;;;;;;;11.15;80.78;93946.22;5128250;27;20552;-42
2021/10/18 01:47:33;;;;;;;15.75;8.07;;;;;;;11.11;81.35;93948.56;5107742;28;20496;-42
2021/10/18 01:49:59;;;;;;;13.13;7.53;;;;;;;11.06;81.48;93947.44;5108122;28;20039;-43
2021/10/18 01:52:25;;;;;;;14.45;8.93;;;;;;;11.04;81.62;93946.47;5108028;28;20020;-43
2021/10/18 01:54:50;;;;;;;11.48;8.27;;;;;;;11.03;81.80;93951.25;5107807;28;20031;-42
2021/10/18 01:57:16;;;;;;;12.82;6.55;;;;;;;11.02;81.58;93954.56;5107897;28;20034;-48
2021/10/18 01:59:41;;;;;;;11.73;6.55;;;;;;;11.01;81.64;93950.31;5107734;28;20077;-44
2021/10/18 02:02:07;;;;;;;16.60;6.95;;;;;;;10.85;82.44;93954.22;5106359;28;20408;-44
2021/10/18 02:04:32;;;;;;;10.15;7.03;;;;;;;10.99;81.81;93953.63;5107439;27;20024;-45
2021/10/18 02:06:58;;;;;;;13.48;7.03;;;;;;;11.03;81.52;93954.03;5107834;28;20534;-45
2021/10/18 02:09:23;;;;;;;12.98;6.72;;;;;;;11.04;81.69;93943.72;5107322;28;20082;-44
2021/10/18 02:11:49;;;;;;;15.68;6.45;;;;;;;11.09;81.44;93954.63;5107729;28;20028;-45
2021/10/18 02:14:14;;;;;;;14.23;7.75;;;;;;;10.99;81.50;93939.06;5107259;28;20016;-44
2021/10/18 02:16:40;;;;;;;11.57;7.10;;;;;;;11.06;81.64;93947.44;5107689;28;20019;-45
2021/10/18 02:19:05;;;;;;;13.05;7.38;;;;;;;11.07;81.70;93951.66;5115829;28;20065;-45
2021/10/18 02:21:31;;;;;;;15.95;7.30;;;;;;;11.10;81.01;93949.84;5127729;27;20024;-45
2021/10/18 02:23:56;;;;;;;16.83;8.18;;;;;;;11.12;81.27;93947.28;5127688;27;20081;-44
2021/10/18 02:26:21;;;;;;;15.05;7.78;;;;;;;11.07;81.45;93948.16;5127563;27;20049;-42
2021/10/18 02:28:47;;;;;;;15.93;8.13;;;;;;;11.08;81.55;93952.41;5127740;27;20023;-42
2021/10/18 02:31:12;;;;;;;18.65;9.15;;;;;;;11.06;81.38;93949.44;5127845;27;20035;-42
2021/10/18 02:33:38;;;;;;;13.68;8.40;;;;;;;11.02;82.00;93949.03;5127761;27;20411;-43
2021/10/18 02:36:03;;;;;;;14.70;8.25;;;;;;;11.00;81.92;93946.81;5127786;27;20023;-42
2021/10/18 02:38:29;;;;;;;13.65;7.75;;;;;;;11.03;81.84;93944.97;5108437;27;20132;-43
2021/10/18 02:40:54;;;;;;;12.38;7.10;;;;;;;11.04;82.03;93940.94;5095082;28;20040;-42
2021/10/18 02:43:20;;;;;;;14.60;7.43;;;;;;;11.05;81.87;93936.91;5093181;28;20027;-43
2021/10/18 02:45:48;;;;;;;15.27;7.32;;;;;;;11.05;81.71;93947.94;5093171;28;20527;-44
2021/10/18 02:48:14;;;;;;;13.70;7.75;;;;;;;11.07;81.84;93942.63;5093025;28;20562;-42
2021/10/18 02:50:39;;;;;;;13.38;7.05;;;;;;;11.09;82.01;93951.84;5093416;28;20028;-42
2021/10/18 02:53:05;;;;;;;20.65;8.10;;;;;;;11.06;81.84;93952.94;5093079;28;20023;-43
2021/10/18 02:55:31;;;;;;;19.13;7.70;;;;;;;11.05;82.16;93950.72;5093335;28;20047;-43
2021/10/18 02:57:56;;;;;;;14.60;8.55;;;;;;;11.05;81.91;93953.47;5093303;28;20412;-43
2021/10/18 03:00:22;;;;;;;18.08;8.55;;;;;;;10.99;82.28;93937.03;5093329;28;20396;-42
2021/10/18 03:02:47;;;;;;;18.65;8.63;;;;;;;11.13;82.11;93957.06;5093203;28;20389;-42
2021/10/18 03:05:12;;;;;;;14.20;8.57;;;;;;;11.13;81.61;93954.31;5093260;28;20066;-42
2021/10/18 03:07:38;;;;;;;34.25;9.68;;;;;;;11.15;81.78;93946.94;5093159;28;20413;-43
2021/10/18 03:10:04;;;;;;;17.75;9.07;;;;;;;11.18;81.88;93947.88;5092908;28;20421;-42
2021/10/18 03:12:29;;;;;;;19.50;9.10;;;;;;;11.21;81.80;93944.03;5092935;28;20030;-42
2021/10/18 03:14:55;;;;;;;19.13;10.07;;;;;;;11.21;81.58;93942.03;5092866;28;20077;-42
2021/10/18 03:17:20;;;;;;;28.85;10.95;;;;;;;11.18;81.75;93943.09;5092626;28;20016;-42
2021/10/18 03:19:46;;;;;;;16.10;9.70;;;;;;;11.19;81.48;93949.38;5092520;28;20012;-42
2021/10/18 03:22:11;;;;;;;18.17;8.50;;;;;;;11.20;81.36;93948.06;5092539;28;20102;-42
2021/10/18 03:24:37;;;;;;;18.48;10.02;;;;;;;11.12;81.73;93950.78;5092735;28;20028;-42
2021/10/18 03:27:02;;;;;;;23.90;9.63;;;;;;;11.07;81.83;93951.66;5092719;28;20016;-42
2021/10/18 03:29:28;;;;;;;18.63;8.60;;;;;;;11.05;81.96;93948.69;5092534;28;20054;-42
2021/10/18 03:31:53;;;;;;;24.42;8.98;;;;;;;11.08;82.04;93952.41;5092487;28;20114;-42
2021/10/18 03:34:18;;;;;;;22.35;9.20;;;;;;;11.02;82.66;93955.28;5106815;28;20024;-42
2021/10/18 03:36:44;;;;;;;19.55;9.00;;;;;;;11.08;82.31;93955.91;5112250;28;20015;-42
2021/10/18 03:39:09;;;;;;;22.65;10.15;;;;;;;11.13;81.98;93957.06;5112333;28;20051;-42
2021/10/18 03:41:35;;;;;;;32.67;10.30;;;;;;;11.09;82.03;93957.38;5112506;28;20031;-42
2021/10/18 03:44:01;;;;;;;17.45;9.18;;;;;;;11.07;82.00;93964.72;5112808;28;20038;-42
2021/10/18 03:46:26;;;;;;;22.92;10.80;;;;;;;11.03;82.63;93958.78;5112670;28;20031;-43
2021/10/18 03:48:52;;;;;;;45.33;13.25;;;;;;;11.02;82.74;93963.56;5112694;28;20465;-43
2021/10/18 03:51:17;;;;;;;26.83;10.30;;;;;;;11.04;82.81;93966.56;5111520;28;20038;-44
2021/10/18 03:53:43;;;;;;;19.25;9.95;;;;;;;11.03;82.73;93965.06;5112611;28;20027;-42
2021/10/18 03:56:08;;;;;;;24.20;10.18;;;;;;;11.06;82.92;93963.25;5112481;28;20040;-43
2021/10/18 03:58:33;;;;;;;30.65;16.52;;;;;;;11.09;82.66;93962.16;5112286;28;20451;-42
2021/10/18 04:00:59;;;;;;;28.00;15.82;;;;;;;11.07;82.54;93959.94;5111958;28;20031;-42
2021/10/18 04:03:24;;;;;;;27.58;14.70;;;;;;;11.07;82.29;93959.94;5111598;28;20023;-42
2021/10/18 04:05:50;;;;;;;27.67;14.85;;;;;;;11.05;82.67;93964.53;5111988;28;20027;-42
2021/10/18 04:08:15;;;;;;;25.33;13.02;;;;;;;11.01;82.70;93964.13;5112151;28;20028;-43
2021/10/18 04:10:42;;;;;;;23.02;12.48;;;;;;;11.02;82.83;93965.63;5111914;28;20076;-43
2021/10/18 04:13:08;;;;;;;23.70;11.00;;;;;;;11.03;82.75;93967.84;5112153;28;20027;-43
2021/10/18 04:15:33;;;;;;;24.65;10.90;;;;;;;11.01;82.92;93969.66;5112093;28;20085;-44
2021/10/18 04:17:59;;;;;;;20.30;9.75;;;;;;;10.96;82.64;93948.44;5112063;28;20449;-44
2021/10/18 04:20:24;;;;;;;43.50;16.52;;;;;;;11.04;82.71;93965.81;5111716;28;20096;-45
2021/10/18 04:22:50;;;;;;;55.70;21.63;;;;;;;11.05;83.07;93962.50;5111678;28;20027;-44
2021/10/18 04:25:16;;;;;;;34.72;16.00;;;;;;;11.01;83.02;93967.63;5111974;27;20019;-44
2021/10/18 04:27:42;;;;;;;25.38;12.82;;;;;;;11.05;82.69;93965.28;5111526;28;20023;-43
2021/10/18 04:30:08;;;;;;;26.63;13.77;;;;;;;11.10;82.43;93967.16;5111403;28;20038;-44
2021/10/18 04:32:33;;;;;;;30.58;12.70;;;;;;;11.11;82.10;93968.63;5111786;28;20031;-43
2021/10/18 04:34:59;;;;;;;27.58;11.75;;;;;;;11.04;82.51;93972.09;5111399;28;20020;-44
2021/10/18 04:37:24;;;;;;;24.60;11.23;;;;;;;11.02;82.98;93969.09;5111118;28;20023;-43
2021/10/18 04:39:49;;;;;;;18.85;10.45;;;;;;;11.07;82.82;93976.53;5111159;28;20047;-43
2021/10/18 04:42:15;;;;;;;28.00;12.10;;;;;;;11.11;82.11;93976.22;5111603;28;20027;-43
2021/10/18 04:44:40;;;;;;;41.72;17.42;;;;;;;11.14;82.33;93975.84;5111239;28;20504;-43
2021/10/18 04:47:06;;;;;;;34.45;14.15;;;;;;;11.18;81.99;93975.50;5111494;28;20023;-43
2021/10/18 04:49:31;;;;;;;45.30;26.38;;;;;;;11.16;82.01;93980.84;5111412;28;20459;-42
2021/10/18 04:51:57;;;;;;;35.97;18.00;;;;;;;11.13;82.08;93977.13;5111403;28;20465;-43
2021/10/18 04:54:22;;;;;;;49.78;21.20;;;;;;;11.15;82.40;93979.38;5111452;28;20393;-43
2021/10/18 04:56:48;;;;;;;56.35;19.80;;;;;;;11.19;82.29;93977.00;5111071;28;20545;-44
2021/10/18 04:59:13;;;;;;;29.35;15.38;;;;;;;11.19;82.24;93975.00;5110909;28;20034;-41
2021/10/18 05:01:38;;;;;;;22.55;12.77;;;;;;;11.16;81.66;93986.38;5110966;28;20027;-44
2021/10/18 05:04:04;;;;;;;19.23;13.05;;;;;;;11.16;81.62;93989.13;5110940;28;20019;-43
2021/10/18 05:06:29;;;;;;;19.48;11.95;;;;;;;11.14;81.67;93986.16;5107269;28;20023;-43
2021/10/18 05:08:55;;;;;;;14.20;9.68;;;;;;;11.07;81.70;93992.34;5099740;28;20031;-43
2021/10/18 05:11:20;;;;;;;17.02;11.02;;;;;;;11.07;81.62;93993.09;5100046;28;20019;-42
2021/10/18 05:13:46;;;;;;;19.25;12.98;;;;;;;11.10;81.32;93996.81;5093534;28;20035;-41
2021/10/18 05:16:11;;;;;;;18.58;12.90;;;;;;;11.08;81.52;94000.13;5090481;28;20473;-43
2021/10/18 05:18:37;;;;;;;20.33;13.20;;;;;;;11.09;81.54;94003.59;5090764;28;20028;-42
2021/10/18 05:21:05;;;;;;;21.50;10.85;;;;;;;11.11;81.20;93995.56;5090762;28;20128;-43
2021/10/18 05:23:34;;;;;;;14.90;10.95;;;;;;;11.11;81.21;93999.03;5090695;28;20101;-42
2021/10/18 05:26:01;;;;;;;11.75;9.68;;;;;;;11.11;81.22;93998.31;5092749;28;20424;-40
2021/10/18 05:28:27;;;;;;;13.65;10.45;;;;;;;11.08;81.21;94000.13;5109631;28;20114;-41
2021/10/18 05:30:52;;;;;;;14.13;9.02;;;;;;;11.05;81.28;94003.22;5110094;28;20111;-41
2021/10/18 05:33:17;;;;;;;15.27;9.82;;;;;;;11.11;81.01;94012.13;5109890;28;20020;-42
2021/10/18 05:35:43;;;;;;;18.52;10.23;;;;;;;11.09;81.58;94012.66;5108838;28;20421;-41
2021/10/18 05:38:08;;;;;;;12.15;9.88;;;;;;;11.11;81.42;94012.84;5109014;28;20043;-40
2021/10/18 05:40:34;;;;;;;12.60;10.32;;;;;;;11.09;80.81;94015.41;5109666;28;20031;-41
2021/10/18 05:42:59;;;;;;;15.80;12.10;;;;;;;11.12;81.00;94016.38;5109536;28;20039;-40
2021/10/18 05:45:25;;;;;;;42.00;12.07;;;;;;;11.20;81.06;94020.69;5109837;28;20028;-40
2021/10/18 05:47:56;;;;;;;15.77;9.70;;;;;;;11.20;80.72;94028.97;5106755;28;20492;-40
2021/10/18 05:50:23;;;;;;;17.67;10.05;;;;;;;11.22;80.55;94033.94;5098577;28;20489;-40
2021/10/18 05:52:48;;;;;;;12.20;8.05;;;;;;;11.28;80.58;94021.47;5089465;28;20614;-40
2021/10/18 05:55:14;;;;;;;8.25;7.38;;;;;;;11.17;80.78;94030.06;5089218;28;20089;-41
2021/10/18 05:57:49;;;;;;;10.43;8.25;;;;;;;11.04;80.93;94012.78;5089073;28;20027;-41
2021/10/18 06:00:15;;;;;;;17.33;14.38;;;;;;;11.25;80.46;94030.13;5088942;28;20066;-41
2021/10/18 06:02:41;;;;;;;13.88;11.93;;;;;;;11.26;80.57;94039.91;5089361;28;20059;-41
2021/10/18 06:05:07;;;;;;;18.80;14.88;;;;;;;11.24;80.66;94040.44;5089023;28;20031;-42
2021/10/18 06:07:32;;;;;;;24.98;15.45;;;;;;;11.30;80.09;94035.50;5088959;28;20055;-40
2021/10/18 06:09:58;;;;;;;32.13;20.25;;;;;;;11.37;80.25;94040.38;5089157;28;20081;-38
2021/10/18 06:12:23;;;;;;;32.38;17.10;;;;;;;11.37;80.64;94045.16;5088987;28;20036;-39
2021/10/18 06:14:48;;;;;;;14.05;9.23;;;;;;;11.42;80.16;94045.03;5089688;28;20073;-41
2021/10/18 06:17:14;;;;;;;13.57;6.80;;;;;;;11.36;79.65;94043.69;5101473;28;20023;-41
2021/10/18 06:19:39;;;;;;;7.00;6.20;;;;;;;11.42;80.01;94053.31;5105796;28;20008;-41
2021/10/18 06:22:05;;;;;;;6.90;5.80;;;;;;;11.25;79.60;94047.44;5098845;28;20020;-41
2021/10/18 06:24:30;;;;;;;8.40;7.35;;;;;;;11.30;79.83;94048.59;5105055;27;20028;-42
2021/10/18 06:26:56;;;;;;;6.80;5.50;;;;;;;11.41;79.52;94054.59;5091022;28;20542;-42
2021/10/18 06:29:21;;;;;;;5.78;5.20;;;;;;;11.44;79.48;94059.06;5092081;28;20109;-42
2021/10/18 06:31:47;;;;;;;5.72;4.90;;;;;;;11.32;79.04;94052.31;5097728;28;20043;-43
2021/10/18 06:34:13;;;;;;;6.22;4.72;;;;;;;11.50;78.65;94064.44;5102256;28;20769;-42
2021/10/18 06:36:38;;;;;;;6.60;5.78;;;;;;;11.47;78.59;94042.66;5111955;28;20027;-43
2021/10/18 06:39:04;;;;;;;8.93;4.68;;;;;;;11.65;78.20;94067.31;5112317;28;20093;-41
2021/10/18 06:41:29;;;;;;;6.70;5.45;;;;;;;11.65;78.60;94072.84;5112260;28;20547;-41
2021/10/18 06:43:55;;;;;;;6.65;5.72;;;;;;;11.68;77.92;94071.81;5112704;28;20024;-42
2021/10/18 06:46:20;;;;;;;18.23;10.43;;;;;;;11.63;78.45;94080.97;5112191;28;20027;-45
2021/10/18 06:48:45;;;;;;;14.63;10.27;;;;;;;11.65;78.48;94077.66;5112016;28;20035;-44
2021/10/18 06:51:11;;;;;;;22.48;12.23;;;;;;;11.69;78.26;94078.84;5111874;28;20028;-44
2021/10/18 06:53:37;;;;;;;20.27;14.00;;;;;;;11.76;78.01;94083.69;5112215;28;20023;-42
2021/10/18 06:56:05;;;;;;;27.27;13.82;;;;;;;11.82;78.04;94075.25;5112023;28;20031;-43
2021/10/18 06:58:31;;;;;;;24.42;12.77;;;;;;;11.81;78.36;94085.56;5104533;28;20020;-42
2021/10/18 07:00:57;;;;;;;15.45;10.52;;;;;;;11.90;78.24;94087.84;5091090;28;20040;-43
2021/10/18 07:03:22;;;;;;;25.98;14.68;;;;;;;11.98;78.06;94085.13;5109091;28;20561;-42
2021/10/18 07:05:48;;;;;;;11.48;8.18;;;;;;;12.08;77.71;94094.44;5109849;28;20055;-42
2021/10/18 07:08:15;;;;;;;9.23;6.15;;;;;;;12.12;76.81;94092.06;5109814;28;20027;-43
2021/10/18 07:10:41;;;;;;;8.77;6.53;;;;;;;12.01;76.58;94100.66;5109807;28;20114;-43
2021/10/18 07:13:09;;;;;;;27.40;16.40;;;;;;;12.05;76.99;94096.28;5110205;27;20046;-44
2021/10/18 07:15:38;;;;;;;18.45;9.45;;;;;;;12.14;77.00;94093.03;5109027;28;20049;-42
2021/10/18 07:18:05;;;;;;;6.88;5.53;;;;;;;12.24;76.67;94092.50;5104350;28;20381;-42
2021/10/18 07:20:30;;;;;;;26.25;15.13;;;;;;;12.27;76.99;94100.47;5089389;28;20040;-44
2021/10/18 07:22:59;;;;;;;13.82;7.07;;;;;;;12.34;75.77;94102.56;5088810;28;20618;-42
2021/10/18 07:25:24;;;;;;;8.73;5.93;;;;;;;12.38;75.59;94094.66;5088771;28;20028;-42
2021/10/18 07:27:50;;;;;;;13.20;9.70;;;;;;;12.44;75.74;94095.22;5089011;28;20043;-40
2021/10/18 07:30:15;;;;;;;9.88;6.63;;;;;;;12.47;75.68;94098.94;5089068;28;20030;-43
2021/10/18 07:32:43;;;;;;;23.33;10.27;;;;;;;12.43;75.60;94090.97;5088977;28;20398;-42
2021/10/18 07:35:10;;;;;;;23.33;12.75;;;;;;;12.44;76.15;94100.00;5088526;28;20036;-42
2021/10/18 07:37:35;;;;;;;10.30;6.38;;;;;;;12.44;75.31;94097.25;5099534;28;20051;-42
2021/10/18 07:40:01;;;;;;;28.55;18.52;;;;;;;12.48;75.40;94097.63;5109665;28;20484;-43
2021/10/18 07:42:26;;;;;;;27.10;15.95;;;;;;;12.56;74.71;94107.47;5102884;28;20526;-43
2021/10/18 07:44:53;;;;;;;13.48;9.05;;;;;;;12.71;75.07;94106.81;5096821;28;20401;-43
2021/10/18 07:47:20;;;;;;;7.97;6.30;;;;;;;12.82;74.89;94106.50;5098817;28;20019;-42
2021/10/18 07:49:45;;;;;;;11.55;9.02;;;;;;;12.97;73.55;94103.81;5101626;28;20020;-42
2021/10/18 07:52:15;;;;;;;17.23;12.38;;;;;;;13.11;72.66;94107.19;5096152;28;20028;-43
2021/10/18 07:54:42;;;;;;;12.25;9.70;;;;;;;13.27;72.03;94103.19;5095980;28;20046;-41
2021/10/18 07:57:09;;;;;;;12.70;5.65;;;;;;;13.42;71.58;94106.72;5098478;27;20562;-42
2021/10/18 07:59:35;;;;;;;6.03;5.07;;;;;;;13.55;70.38;94101.03;5093564;28;20440;-41
2021/10/18 08:02:00;;;;;;;6.47;5.78;;;;;;;13.42;70.26;94106.72;5096540;28;20031;-41
2021/10/18 08:04:26;;;;;;;7.55;4.13;;;;;;;13.43;70.23;94088.78;5100264;28;20022;-38
2021/10/18 08:06:52;;;;;;;5.53;4.50;;;;;;;13.50;70.14;94096.38;5100057;28;20023;-38
2021/10/18 08:09:17;;;;;;;5.22;4.72;;;;;;;13.55;70.72;94098.25;5107895;28;20113;-40
2021/10/18 08:11:43;;;;;;;12.02;5.05;;;;;;;13.57;70.08;94100.47;5107445;28;20524;-39
2021/10/18 08:14:11;;;;;;;7.22;5.80;;;;;;;13.32;70.75;94094.69;5107816;28;20038;-40
2021/10/18 08:16:37;;;;;;;5.63;4.93;;;;;;;13.34;70.27;94100.41;5105415;28;20041;-39
2021/10/18 08:19:02;;;;;;;9.13;6.82;;;;;;;13.35;69.87;94090.81;5108620;28;20421;-38
2021/10/18 08:21:28;;;;;;;11.00;7.88;;;;;;;13.41;70.93;94094.16;5108543;28;20028;-38
2021/10/18 08:23:53;;;;;;;13.57;8.05;;;;;;;13.59;71.12;94098.63;5108374;28;20036;-40
2021/10/18 08:26:19;;;;;;;16.92;12.85;;;;;;;13.69;70.96;94088.44;5108791;28;20031;-38
2021/10/18 08:28:44;;;;;;;13.32;9.50;;;;;;;13.74;71.14;94086.03;5108777;28;20034;-39
2021/10/18 08:31:10;;;;;;;15.75;8.82;;;;;;;13.67;70.64;94071.63;5108972;28;20078;-40
2021/10/18 08:33:35;;;;;;;9.27;7.88;;;;;;;13.83;69.97;94085.50;5108738;28;20549;-38
2021/10/18 08:36:05;;;;;;;12.32;10.05;;;;;;;13.83;69.22;94091.06;5108502;28;20024;-38
2021/10/18 08:41:10;;;;;;;14.23;9.18;;;;;;;13.56;69.53;94088.63;5108250;28;20047;-38
2021/10/18 08:46:01;;;;;;;9.52;7.45;;;;;;;13.06;70.22;94083.16;5108380;28;20038;-38
2021/10/18 08:48:28;;;;;;;12.13;8.60;;;;;;;12.83;72.06;94086.56;5108036;28;20118;-39
2021/10/18 08:50:53;;;;;;;20.40;13.23;;;;;;;12.59;73.58;94087.00;5108271;28;20080;-38
2021/10/18 08:53:18;;;;;;;14.80;10.40;;;;;;;12.52;73.53;94086.94;5108280;28;20024;-39
2021/10/18 08:55:44;;;;;;;13.07;9.57;;;;;;;12.50;73.54;94089.53;5096597;28;20031;-39
2021/10/18 08:58:09;;;;;;;13.50;9.77;;;;;;;12.40;72.86;94089.28;5087988;28;20023;-39
2021/10/18 09:00:48;;;;;;;13.77;8.98;;;;;;;12.43;74.58;94093.72;5087744;28;20559;-40
2021/10/18 09:03:18;;;;;;;11.85;9.02;;;;;;;12.45;73.40;94090.44;5087458;28;20588;-39
2021/10/18 09:05:45;;;;;;;10.05;8.00;;;;;;;12.53;72.44;94097.50;5087660;28;20044;-39
2021/10/18 09:08:42;;;;;;;12.43;8.45;;;;;;;12.70;71.65;94097.75;5087643;28;20132;-39
2021/10/18 09:11:28;;;;;;;12.38;10.15;;;;;;;12.83;71.34;94091.34;5088440;28;20451;-40
2021/10/18 09:13:53;;;;;;;13.18;8.45;;;;;;;12.74;70.14;94095.38;5087351;28;20496;-40
2021/10/18 09:16:23;;;;;;;12.52;8.23;;;;;;;12.70;71.12;94097.03;5086433;28;20165;-40
2021/10/18 09:18:59;;;;;;;9.23;6.97;;;;;;;12.80;70.14;94095.19;5087779;28;20024;-40
2021/10/18 09:21:38;;;;;;;10.77;7.90;;;;;;;12.97;71.42;94095.50;5105854;28;20042;-39
2021/10/18 09:24:05;;;;;;;14.45;8.02;;;;;;;13.16;70.94;94095.94;5107354;28;20100;-40
2021/10/18 09:26:32;;;;;;;16.83;9.23;;;;;;;13.29;69.98;94098.56;5108220;28;20096;-40
2021/10/18 09:29:15;;;;;;;11.18;7.68;;;;;;;13.35;68.90;94085.25;5107551;28;20035;-39
2021/10/18 09:31:44;;;;;;;13.30;9.10;;;;;;;13.59;68.80;94100.66;5107444;28;20112;-39
2021/10/18 09:34:11;;;;;;;10.95;7.70;;;;;;;13.70;67.48;94097.53;5107209;28;20123;-38
2021/10/18 09:36:38;;;;;;;11.40;8.43;;;;;;;13.68;67.24;94083.47;5107470;28;20132;-39
2021/10/18 09:39:21;;;;;;;11.18;8.75;;;;;;;13.86;67.47;94099.00;5107279;28;20131;-39
2021/10/18 09:41:57;;;;;;;22.13;15.23;;;;;;;13.94;66.18;94093.47;5107870;28;20051;-39
2021/10/18 09:44:47;;;;;;;18.27;12.05;;;;;;;14.02;65.58;94088.63;5107690;28;20043;-39
2021/10/18 10:52:42;;;;;;;16.58;11.50;;;;;;;14.33;63.58;94054.78;5099518;28;20038;-42
2021/10/18 10:55:27;;;;;;;30.33;18.98;;;;;;;14.35;64.81;94057.72;5097630;27;20028;-41
2021/10/18 10:57:56;;;;;;;18.80;13.18;;;;;;;14.32;64.77;94053.28;5091591;28;20107;-41
2021/10/18 11:00:41;;;;;;;18.77;13.63;;;;;;;13.98;64.61;94052.19;5091242;28;20031;-42
2021/10/18 11:03:31;;;;;;;24.85;13.57;;;;;;;13.89;66.71;94058.28;5102525;28;20023;-39
2021/10/18 11:06:04;;;;;;;16.55;12.77;;;;;;;14.09;65.74;94052.56;5111631;28;20039;-39
2021/10/18 11:08:43;;;;;;;15.30;12.27;;;;;;;14.26;64.37;94058.25;5111294;28;20043;-39
2021/10/18 11:11:23;;;;;;;18.00;12.52;;;;;;;14.21;64.50;94039.00;5111789;28;20070;-39
2021/10/18 11:13:54;;;;;;;14.73;11.35;;;;;;;14.00;63.08;94050.34;5111831;28;20027;-40
2021/10/18 11:16:22;;;;;;;19.95;13.95;;;;;;;13.59;63.61;94020.94;5111634;28;20031;-39
2021/10/18 11:18:50;;;;;;;18.60;13.07;;;;;;;13.60;65.77;94041.81;5106269;28;20508;-39
2021/10/18 11:21:33;;;;;;;20.83;12.95;;;;;;;13.71;65.63;94043.50;5108397;28;20038;-40
2021/10/18 11:24:09;;;;;;;16.52;11.32;;;;;;;13.77;64.13;94038.50;5111406;28;20031;-39
2021/10/18 11:26:39;;;;;;;17.83;12.38;;;;;;;14.22;65.93;94034.94;5110338;28;20096;-39
2021/10/18 11:29:10;;;;;;;16.55;11.88;;;;;;;15.24;61.87;94032.16;5109681;28;20019;-39
2021/10/18 11:31:38;;;;;;;13.10;11.00;;;;;;;15.70;61.14;94029.84;5109807;28;20039;-39
2021/10/18 11:34:21;;;;;;;15.45;11.13;;;;;;;16.05;58.32;94030.66;5110198;28;20129;-40
2021/10/18 11:36:49;;;;;;;14.73;11.18;;;;;;;16.26;57.59;94031.75;5109480;28;20215;-39
2021/10/18 11:39:21;;;;;;;32.67;21.65;;;;;;;16.76;57.86;94028.84;5109623;28;20051;-39
2021/10/18 11:41:59;;;;;;;12.95;10.52;;;;;;;17.97;54.37;94023.06;5111052;28;20046;-40
2021/10/18 11:44:49;;;;;;;12.85;10.65;;;;;;;19.53;50.72;94019.09;5111360;28;20031;-39
2021/10/18 11:47:21;;;;;;;15.05;12.57;;;;;;;20.69;49.12;94020.00;5111043;28;20058;-39
2021/10/18 11:50:18;;;;;;;13.70;10.52;;;;;;;20.31;45.38;94017.47;5111006;28;20032;-39
2021/10/18 11:52:49;;;;;;;16.33;11.57;;;;;;;19.49;48.26;94023.72;5111335;28;20039;-39
2021/10/18 11:55:22;;;;;;;15.00;13.05;;;;;;;19.45;49.51;94020.59;5110838;28;20035;-40
2021/10/18 11:57:49;;;;;;;23.45;16.00;;;;;;;19.40;48.08;94014.00;5111023;28;20506;-39
2021/10/18 12:00:26;;;;;;;17.67;13.93;;;;;;;19.21;49.92;94016.78;5110689;28;20453;-40
2021/10/18 12:02:52;;;;;;;16.90;12.13;;;;;;;19.04;49.03;94016.97;5110746;28;20735;-40
2021/10/18 12:05:18;;;;;;;19.10;12.05;;;;;;;18.96;48.88;94016.41;5110877;28;20037;-39
2021/10/18 12:07:48;;;;;;;15.05;12.13;;;;;;;18.71;50.85;94013.91;5110596;28;20063;-39
2021/10/18 12:10:17;;;;;;;15.27;12.73;;;;;;;18.39;50.93;94021.94;5109014;28;20046;-39
2021/10/18 12:13:02;;;;;;;16.20;12.63;;;;;;;18.63;51.33;94013.31;5091613;28;20027;-41
2021/10/18 12:15:28;;;;;;;15.13;11.93;;;;;;;18.10;52.13;94017.03;5097848;28;20032;-39
2021/10/18 12:17:54;;;;;;;18.30;13.38;;;;;;;17.99;53.04;94017.63;5104901;28;20549;-40
2021/10/18 12:20:19;;;;;;;15.52;11.52;;;;;;;17.79;53.37;94018.13;5109646;28;20026;-39
2021/10/18 12:23:06;;;;;;;15.85;11.20;;;;;;;17.18;53.81;94019.00;5109085;28;20406;-39
2021/10/18 12:25:36;;;;;;;16.17;11.82;;;;;;;16.88;56.15;94013.06;5110248;28;20058;-39
2021/10/18 12:28:25;;;;;;;15.32;11.10;;;;;;;17.32;54.66;94013.78;5110082;28;20030;-39
2021/10/18 12:30:50;;;;;;;17.23;12.05;;;;;;;17.30;55.08;94017.13;5110567;28;20454;-39
2021/10/18 12:33:16;;;;;;;16.52;11.70;;;;;;;17.73;55.08;94012.09;5091288;28;20092;-41
2021/10/18 12:35:42;;;;;;;14.63;11.68;;;;;;;18.14;53.43;94008.97;5089889;28;20149;-40
2021/10/18 12:38:12;;;;;;;15.15;9.57;;;;;;;18.57;52.30;94014.94;5104404;28;20049;-42
2021/10/18 12:40:39;;;;;;;11.52;9.90;;;;;;;18.75;51.06;94016.28;5110070;28;20115;-41
2021/10/18 12:43:05;;;;;;;15.57;12.23;;;;;;;18.97;50.90;94015.09;5110537;28;20023;-40
2021/10/18 12:45:35;;;;;;;11.65;9.77;;;;;;;19.09;49.57;94012.41;5110188;28;20130;-41
2021/10/18 12:48:02;;;;;;;11.95;10.40;;;;;;;18.92;49.44;94004.91;5110332;28;20427;-41
2021/10/18 12:50:35;;;;;;;11.40;9.73;;;;;;;18.98;50.53;94018.59;5110217;28;20123;-42
2021/10/18 12:53:03;;;;;;;10.02;8.98;;;;;;;18.83;51.53;94019.66;5110047;28;20050;-42
2021/10/18 12:55:33;;;;;;;16.10;10.90;;;;;;;18.87;50.43;94017.88;5110121;28;20114;-41
2021/10/18 12:57:59;;;;;;;9.43;7.80;;;;;;;18.62;49.42;94013.91;5100854;28;20046;-42
2021/10/18 13:00:44;;;;;;;10.38;8.45;;;;;;;18.36;50.98;94011.94;5109300;28;20039;-41